createdAt,value
2023-02-25T00:01:26.330Z,35.71
2023-02-25T00:05:26.508Z,35.72
2023-02-25T00:09:26.711Z,35.74
2023-02-25T00:13:26.871Z,35.72
2023-02-25T00:17:27.077Z,35.71
2023-02-25T00:21:27.266Z,35.73
2023-02-25T00:25:27.476Z,35.74
2023-02-25T00:29:27.711Z,35.79
2023-02-25T00:33:27.939Z,35.73
2023-02-25T00:37:28.093Z,35.76
2023-02-25T00:41:28.319Z,35.75
2023-02-25T00:45:28.476Z,35.75
2023-02-25T00:49:32.378Z,35.78
2023-02-25T00:53:28.671Z,35.81
2023-02-25T00:57:28.654Z,35.78
2023-02-25T01:01:28.694Z,35.82
2023-02-25T01:05:28.538Z,35.77
2023-02-25T01:09:28.531Z,35.81
2023-02-25T01:13:28.509Z,35.75
2023-02-25T01:17:28.747Z,35.79
2023-02-25T01:21:28.701Z,35.79
2023-02-25T01:25:28.644Z,35.76
2023-02-25T01:29:28.627Z,35.78
2023-02-25T01:33:28.620Z,35.79
2023-02-25T01:37:28.576Z,35.78
2023-02-25T01:41:28.529Z,35.76
2023-02-25T01:45:28.474Z,35.79
2023-02-25T01:49:28.463Z,35.76
2023-02-25T01:53:28.440Z,35.80
2023-02-25T01:57:28.408Z,35.78
2023-02-25T02:01:28.414Z,35.84
2023-02-25T02:05:28.641Z,35.78
2023-02-25T02:09:28.853Z,35.80
2023-02-25T02:13:29.028Z,35.80
2023-02-25T02:17:30.427Z,35.78
2023-02-25T02:21:28.973Z,35.73
2023-02-25T02:25:28.967Z,35.80
2023-02-25T02:29:28.906Z,35.83
2023-02-25T02:33:28.990Z,35.78
2023-02-25T02:37:29.186Z,35.78
2023-02-25T02:41:29.443Z,35.78
2023-02-25T02:45:29.695Z,35.76
2023-02-25T02:49:29.862Z,35.73
2023-02-25T02:53:30.044Z,35.78
2023-02-25T02:57:30.003Z,35.74
2023-02-25T03:01:30.064Z,35.74
2023-02-25T03:05:29.944Z,35.75
2023-02-25T03:09:29.924Z,35.73
2023-02-25T03:13:29.848Z,35.73
2023-02-25T03:17:29.833Z,35.74
2023-02-25T03:21:29.809Z,35.73
2023-02-25T03:25:29.802Z,35.72
2023-02-25T03:29:29.743Z,35.73
2023-02-25T03:33:29.696Z,35.66
2023-02-25T03:37:29.880Z,35.75
2023-02-25T03:41:29.864Z,35.71
2023-02-25T03:45:29.842Z,35.70
2023-02-25T03:49:29.806Z,35.66
2023-02-25T03:53:29.744Z,35.68
2023-02-25T03:57:29.734Z,35.64
2023-02-25T04:01:29.662Z,35.65
2023-02-25T04:05:29.637Z,35.67
2023-02-25T04:09:29.591Z,35.66
2023-02-25T04:13:29.549Z,35.65
2023-02-25T04:17:29.579Z,35.61
2023-02-25T04:21:29.881Z,35.61
2023-02-25T04:25:29.749Z,35.58
2023-02-25T04:29:29.722Z,35.58
2023-02-25T04:33:29.677Z,35.57
2023-02-25T04:37:29.646Z,35.60
2023-02-25T04:41:29.640Z,35.57
2023-02-25T04:45:29.589Z,35.50
2023-02-25T04:49:29.533Z,35.51
2023-02-25T04:53:29.488Z,35.51
2023-02-25T04:57:29.490Z,35.49
2023-02-25T05:01:29.436Z,35.51
2023-02-25T05:05:29.583Z,35.49
2023-02-25T05:09:29.546Z,35.48
2023-02-25T05:13:29.522Z,35.48
2023-02-25T05:17:29.481Z,35.45
2023-02-25T05:21:29.435Z,35.42
2023-02-25T05:25:29.424Z,35.41
2023-02-25T05:29:29.415Z,35.37
2023-02-25T05:33:29.327Z,35.42
2023-02-25T05:37:29.290Z,35.40
2023-02-25T05:41:29.291Z,35.40
2023-02-25T05:45:29.288Z,35.38
2023-02-25T05:49:29.259Z,35.40
2023-02-25T05:53:29.210Z,35.31
2023-02-25T05:57:29.194Z,35.36
2023-02-25T06:01:29.184Z,35.31
2023-02-25T06:05:29.121Z,35.30
2023-02-25T06:09:29.072Z,35.28
2023-02-25T06:13:29.039Z,35.27
2023-02-25T06:17:29.028Z,35.22
2023-02-25T06:21:28.979Z,35.26
2023-02-25T06:25:29.125Z,35.23
2023-02-25T06:29:29.093Z,35.26
2023-02-25T06:33:29.028Z,35.24
2023-02-25T06:37:29.031Z,35.22
2023-02-25T06:41:29.025Z,35.18
2023-02-25T06:45:28.975Z,35.20
2023-02-25T06:49:28.900Z,35.19
2023-02-25T06:53:28.899Z,35.17
2023-02-25T06:57:28.865Z,35.17
2023-02-25T07:01:28.853Z,35.14
2023-02-25T07:05:28.927Z,35.13
2023-02-25T07:09:28.896Z,35.12
2023-02-25T07:13:28.856Z,35.13
2023-02-25T07:17:28.799Z,35.13
2023-02-25T07:21:28.775Z,35.09
2023-02-25T07:25:28.773Z,35.05
2023-02-25T07:29:28.711Z,35.04
2023-02-25T07:33:28.672Z,35.03
2023-02-25T07:37:28.636Z,34.99
2023-02-25T07:41:28.632Z,35.00
2023-02-25T07:45:28.815Z,35.01
2023-02-25T07:49:28.783Z,34.97
2023-02-25T07:53:28.755Z,34.94
2023-02-25T07:57:28.743Z,34.92
2023-02-25T08:01:28.677Z,34.95
2023-02-25T08:05:28.652Z,34.92
2023-02-25T08:09:28.605Z,34.90
2023-02-25T08:13:28.598Z,34.90
2023-02-25T08:17:28.571Z,34.88
2023-02-25T08:21:28.517Z,34.88
2023-02-25T08:25:28.635Z,34.86
2023-02-25T08:29:28.598Z,34.86
2023-02-25T08:33:28.569Z,34.78
2023-02-25T08:37:28.531Z,34.85
2023-02-25T08:41:28.487Z,34.78
2023-02-25T08:45:28.458Z,34.84
2023-02-25T08:49:28.434Z,34.88
2023-02-25T08:53:28.414Z,34.78
2023-02-25T08:57:28.356Z,34.85
2023-02-25T09:01:28.534Z,34.80
2023-02-25T09:05:28.456Z,34.80
2023-02-25T09:09:28.413Z,34.77
2023-02-25T09:13:28.416Z,34.81
2023-02-25T09:17:28.396Z,34.76
2023-02-25T09:21:28.379Z,34.77
2023-02-25T09:25:28.328Z,34.74
2023-02-25T09:29:28.291Z,34.74
2023-02-25T09:33:28.258Z,34.71
2023-02-25T09:37:28.212Z,34.69
2023-02-25T09:41:28.199Z,34.72
2023-02-25T09:45:28.183Z,34.68
2023-02-25T09:49:28.117Z,34.74
2023-02-25T09:53:28.060Z,34.66
2023-02-25T09:57:28.069Z,34.71
2023-02-25T10:01:28.007Z,34.71
2023-02-25T10:05:27.984Z,34.61
2023-02-25T10:09:27.948Z,34.61
2023-02-25T10:13:27.905Z,34.61
2023-02-25T10:17:27.884Z,34.59
2023-02-25T10:21:27.860Z,34.58
2023-02-25T10:25:27.856Z,34.57
2023-02-25T10:29:27.807Z,34.56
2023-02-25T10:33:27.799Z,34.57
2023-02-25T10:37:27.752Z,34.57
2023-02-25T10:41:27.726Z,34.53
2023-02-25T10:45:27.701Z,34.54
2023-02-25T10:49:27.655Z,34.60
2023-02-25T10:53:27.604Z,34.54
2023-02-25T10:57:27.568Z,34.52
2023-02-25T11:01:27.636Z,34.51
2023-02-25T11:05:27.584Z,34.51
2023-02-25T11:09:27.536Z,34.52
2023-02-25T11:13:27.533Z,34.50
2023-02-25T11:17:27.470Z,34.52
2023-02-25T11:21:27.450Z,34.46
2023-02-25T11:25:27.496Z,34.49
2023-02-25T11:29:27.369Z,34.47
2023-02-25T11:33:27.351Z,34.51
2023-02-25T11:37:27.292Z,34.48
2023-02-25T11:41:27.278Z,34.52
2023-02-25T11:45:27.306Z,34.47
2023-02-25T11:49:27.266Z,34.47
2023-02-25T11:53:27.213Z,34.43
2023-02-25T11:57:27.192Z,34.47
2023-02-25T12:01:27.160Z,34.47
2023-02-25T12:05:27.113Z,34.47
2023-02-25T12:09:27.083Z,34.49
2023-02-25T12:13:27.120Z,34.50
2023-02-25T12:17:27.046Z,34.48
2023-02-25T12:21:26.984Z,34.45
2023-02-25T12:25:26.999Z,34.44
2023-02-25T12:29:26.957Z,34.41
2023-02-25T12:33:26.928Z,34.45
2023-02-25T12:37:26.899Z,34.43
2023-02-25T12:41:26.848Z,34.42
2023-02-25T12:45:26.877Z,34.40
2023-02-25T12:49:26.768Z,34.38
2023-02-25T12:53:26.718Z,34.43
2023-02-25T12:57:26.701Z,34.42
2023-02-25T13:01:26.953Z,34.40
2023-02-25T13:05:26.774Z,34.40
2023-02-25T13:09:26.743Z,34.35
2023-02-25T13:13:26.687Z,34.40
2023-02-25T13:17:26.670Z,34.37
2023-02-25T13:21:26.928Z,34.39
2023-02-25T13:25:26.600Z,34.36
2023-02-25T13:29:26.590Z,34.41
2023-02-25T13:33:26.523Z,34.37
2023-02-25T13:37:26.497Z,34.42
2023-02-25T13:41:26.469Z,34.36
2023-02-25T13:45:26.599Z,34.36
2023-02-25T13:49:26.555Z,34.39
2023-02-25T13:53:26.546Z,34.38
2023-02-25T13:57:26.488Z,34.39
2023-02-25T14:01:26.861Z,34.39
2023-02-25T14:05:26.423Z,34.36
2023-02-25T14:09:26.370Z,34.39
2023-02-25T14:13:26.369Z,34.40
2023-02-25T14:17:26.326Z,34.40
2023-02-25T14:21:26.303Z,34.35
2023-02-25T14:25:26.344Z,34.32
2023-02-25T14:29:26.278Z,34.39
2023-02-25T14:33:26.263Z,34.35
2023-02-25T14:37:26.274Z,34.33
2023-02-25T14:41:26.200Z,34.36
2023-02-25T14:45:26.189Z,34.33
2023-02-25T14:49:26.805Z,34.30
2023-02-25T14:53:26.116Z,34.33
2023-02-25T14:57:26.050Z,34.37
2023-02-25T15:01:26.338Z,34.32
2023-02-25T15:05:26.184Z,34.31
2023-02-25T15:09:26.151Z,34.30
2023-02-25T15:13:26.128Z,34.30
2023-02-25T15:17:26.096Z,34.26
2023-02-25T15:21:26.081Z,34.27
2023-02-25T15:25:26.007Z,34.23
2023-02-25T15:29:25.972Z,34.25
2023-02-25T15:33:25.914Z,34.23
2023-02-25T15:37:25.910Z,34.20
2023-02-25T15:41:26.022Z,34.20
2023-02-25T15:45:26.942Z,34.19
2023-02-25T15:49:26.045Z,34.19
2023-02-25T15:53:26.004Z,34.19
2023-02-25T15:57:25.988Z,34.21
2023-02-25T16:01:26.468Z,34.19
2023-02-25T16:05:25.891Z,34.16
2023-02-25T16:09:25.870Z,34.17
2023-02-25T16:13:25.819Z,34.14
2023-02-25T16:17:25.789Z,34.11
2023-02-25T16:21:25.965Z,34.11
2023-02-25T16:25:25.863Z,34.06
2023-02-25T16:29:25.831Z,34.07
2023-02-25T16:33:25.821Z,34.07
2023-02-25T16:37:25.800Z,34.03
2023-02-25T16:41:36.320Z,34.01
2023-02-25T16:45:27.046Z,34.00
2023-02-25T16:49:25.947Z,33.97
2023-02-25T16:53:25.893Z,33.98
2023-02-25T16:57:25.849Z,33.96
2023-02-25T17:01:25.874Z,33.96
2023-02-25T17:05:25.790Z,33.94
2023-02-25T17:09:25.771Z,33.92
2023-02-25T17:13:25.735Z,33.95
2023-02-25T17:17:25.710Z,33.93
2023-02-25T17:21:25.651Z,33.91
2023-02-25T17:25:25.612Z,33.92
2023-02-25T17:29:25.580Z,33.89
2023-02-25T17:33:26.564Z,33.89
2023-02-25T17:37:25.832Z,33.89
2023-02-25T17:41:26.048Z,33.87
2023-02-25T17:45:26.217Z,33.87
2023-02-25T17:49:26.409Z,33.90
2023-02-25T17:53:26.639Z,33.84
2023-02-25T17:57:26.614Z,33.81
2023-02-25T18:01:26.586Z,33.82
2023-02-25T18:05:26.537Z,33.78
2023-02-25T18:09:26.479Z,33.80
2023-02-25T18:13:26.472Z,33.76
2023-02-25T18:17:26.438Z,33.75
2023-02-25T18:21:26.411Z,33.76
2023-02-25T18:25:26.353Z,33.76
2023-02-25T18:29:26.300Z,33.73
2023-02-25T18:33:26.301Z,33.70
2023-02-25T18:37:26.233Z,33.74
2023-02-25T18:41:26.215Z,33.70
2023-02-25T18:45:26.155Z,33.67
2023-02-25T18:49:26.150Z,33.66
2023-02-25T18:53:26.103Z,33.63
2023-02-25T18:57:26.074Z,33.64
2023-02-25T19:01:26.098Z,33.63
2023-02-25T19:05:26.029Z,33.61
2023-02-25T19:09:26.046Z,33.59
2023-02-25T19:13:26.091Z,33.56
2023-02-25T19:17:26.038Z,33.57
2023-02-25T19:21:26.027Z,33.57
2023-02-25T19:25:25.922Z,33.54
2023-02-25T19:29:25.929Z,33.57
2023-02-25T19:33:25.907Z,33.54
2023-02-25T19:37:25.828Z,33.48
2023-02-25T19:41:25.785Z,33.49
2023-02-25T19:45:25.786Z,33.50
2023-02-25T19:49:25.753Z,33.51
2023-02-25T19:53:25.724Z,33.48
2023-02-25T19:57:25.655Z,33.45
2023-02-25T20:01:25.632Z,33.49
2023-02-25T20:05:25.724Z,33.44
2023-02-25T20:09:25.800Z,33.44
2023-02-25T20:13:25.937Z,33.48
2023-02-25T20:17:26.209Z,33.41
2023-02-25T20:21:26.118Z,33.41
2023-02-25T20:25:26.195Z,33.44
2023-02-25T20:29:26.326Z,33.38
2023-02-25T20:33:28.070Z,33.40
2023-02-25T20:37:26.321Z,33.36
2023-02-25T20:41:26.354Z,33.37
2023-02-25T20:45:26.465Z,33.41
2023-02-25T20:49:26.532Z,33.37
2023-02-25T20:53:26.647Z,33.36
2023-02-25T20:57:26.687Z,33.36
2023-02-25T21:01:26.706Z,33.33
2023-02-25T21:05:26.731Z,33.40
2023-02-25T21:09:26.704Z,33.33
2023-02-25T21:13:26.787Z,33.30
2023-02-25T21:17:26.776Z,33.33
2023-02-25T21:21:26.803Z,33.32
2023-02-25T21:25:26.851Z,33.30
2023-02-25T21:29:26.829Z,33.32
2023-02-25T21:33:26.859Z,33.34
2023-02-25T21:37:26.866Z,33.37
2023-02-25T21:41:26.864Z,33.32
2023-02-25T21:45:26.936Z,33.28
2023-02-25T21:49:26.936Z,33.23
2023-02-25T21:53:26.996Z,33.29
2023-02-25T21:57:27.053Z,33.33
2023-02-25T22:01:27.169Z,33.27
2023-02-25T22:05:27.134Z,33.27
2023-02-25T22:09:27.149Z,33.26
2023-02-25T22:13:27.204Z,33.26
2023-02-25T22:17:27.234Z,33.29
2023-02-25T22:21:27.236Z,33.26
2023-02-25T22:25:27.265Z,33.24
2023-02-25T22:29:27.276Z,33.22
2023-02-25T22:33:27.289Z,33.21
2023-02-25T22:37:27.334Z,33.24
2023-02-25T22:41:27.291Z,33.30
2023-02-25T22:45:27.341Z,33.26
2023-02-25T22:49:27.381Z,33.24
2023-02-25T22:53:27.355Z,33.19
2023-02-25T22:57:27.356Z,33.20
2023-02-25T23:01:27.361Z,33.26
2023-02-25T23:05:27.333Z,33.18
2023-02-25T23:09:27.311Z,33.20
2023-02-25T23:13:27.287Z,33.18
2023-02-25T23:17:27.287Z,33.19
2023-02-25T23:21:27.263Z,33.16
2023-02-25T23:25:27.277Z,33.15
2023-02-25T23:29:27.265Z,33.11
2023-02-25T23:33:27.255Z,33.17
2023-02-25T23:37:27.234Z,33.16
2023-02-25T23:41:27.555Z,33.16
2023-02-25T23:45:27.379Z,33.13
2023-02-25T23:49:27.191Z,33.09
2023-02-25T23:53:27.220Z,33.12
2023-02-25T23:57:27.195Z,33.12
